Time;durP1;ratioP1;P1;durP2;ratioP2;P2;SDS_P1;SDS_P2;PMS_P1;PMS_P2;Temp;Humidity;BMP_temperature;BMP_pressure;BME280_temperature;BME280_humidity;BME280_pressure;Samples;Min_cycle;Max_cycle;Signal;HPM_P1;HPM_P2
2021/10/16 00:00:43;;;;;;;;;;;4.80;99.90;;;;;;5100948;28;19912;-84
2021/10/16 00:03:08;;;;;;;;;;;4.90;99.90;;;;;;5099980;28;19905;-85
2021/10/16 00:05:34;;;;;;;;;;;5.00;99.90;;;;;;5100823;28;19936;-84
2021/10/16 00:07:59;;;;;;;;;;;5.10;99.90;;;;;;5082197;28;19919;-82
2021/10/16 00:10:25;;;;;;;;;;;5.20;99.90;;;;;;5074189;28;20368;-82
2021/10/16 00:12:50;;;;;;;;;;;5.20;99.90;;;;;;5074408;28;19920;-82
2021/10/16 00:15:16;;;;;;;;;;;5.30;99.90;;;;;;5075554;28;19964;-82
2021/10/16 00:17:41;;;;;;;;;;;5.40;99.90;;;;;;5075316;28;19912;-83
2021/10/16 00:20:08;;;;;;;;;;;5.40;99.90;;;;;;5073942;28;19924;-82
2021/10/16 00:22:33;;;;;;;;;;;5.40;99.90;;;;;;5057338;28;20351;-83
2021/10/16 00:24:59;;;;;;;;;;;5.50;99.90;;;;;;5074178;28;19974;-82
2021/10/16 00:27:24;;;;;;;;;;;5.50;99.90;;;;;;5075684;28;20007;-82
2021/10/16 00:29:50;;;;;;;;;;;5.60;99.90;;;;;;5075260;28;19958;-82
2021/10/16 00:32:15;;;;;;;;;;;5.60;99.90;;;;;;5075203;28;19915;-82
2021/10/16 00:34:40;;;;;;;;;;;5.50;99.90;;;;;;5073262;28;19935;-82
2021/10/16 00:37:06;;;;;;;;;;;5.50;99.90;;;;;;5074960;28;19915;-82
2021/10/16 00:39:32;;;;;;;;;;;5.50;99.90;;;;;;5074787;28;19913;-82
2021/10/16 00:41:57;;;;;;;;;;;5.50;99.90;;;;;;5074892;28;19909;-82
2021/10/16 00:44:24;;;;;;;;;;;5.60;99.90;;;;;;5074762;28;19915;-82
2021/10/16 00:46:51;;;;;;;;;;;5.60;99.90;;;;;;5056632;28;20199;-82
2021/10/16 00:49:16;;;;;;;;;;;5.60;99.90;;;;;;5074548;28;19958;-82
2021/10/16 00:51:42;;;;;;;;;;;5.70;99.90;;;;;;5074642;28;19999;-82
2021/10/16 00:54:09;;;;;;;;;;;5.80;99.90;;;;;;5056364;28;19915;-82
2021/10/16 00:56:41;;;;;;;;;;;5.90;99.90;;;;;;5056651;28;19908;-84
2021/10/16 00:59:07;;;;;;;;;;;6.00;99.90;;;;;;5056103;28;19965;-83
2021/10/16 01:01:33;;;;;;;;;;;6.20;99.90;;;;;;5056365;28;19908;-83
2021/10/16 01:03:59;;;;;;;;;;;6.20;99.90;;;;;;5074023;28;19924;-82
2021/10/16 01:06:24;;;;;;;;;;;6.20;99.90;;;;;;5074191;28;19908;-83
2021/10/16 01:08:52;;;;;;;;;;;6.20;99.90;;;;;;5073896;28;20130;-82
2021/10/16 01:11:19;;;;;;;;;;;6.30;99.90;;;;;;5056286;28;20399;-82
2021/10/16 01:13:44;;;;;;;;;;;6.30;99.90;;;;;;5055950;28;20482;-82
2021/10/16 01:16:10;;;;;;;;;;;6.40;99.90;;;;;;5072648;28;20057;-82
2021/10/16 01:18:36;;;;;;;;;;;6.40;99.90;;;;;;5073182;28;20035;-82
2021/10/16 01:21:05;;;;;;;;;;;6.40;99.90;;;;;;5072640;28;19908;-83
2021/10/16 01:23:35;;;;;;;;;;;6.20;99.90;;;;;;5055646;28;19919;-83
2021/10/16 01:26:04;;;;;;;;;;;6.20;99.90;;;;;;5055438;28;20388;-82
2021/10/16 01:28:30;;;;;;;;;;;6.10;99.90;;;;;;5055854;28;19968;-83
2021/10/16 01:30:56;;;;;;;;;;;6.10;99.90;;;;;;5073476;28;19969;-82
2021/10/16 01:33:25;;;;;;;;;;;6.10;99.90;;;;;;5073432;28;19934;-83
2021/10/16 01:36:04;;;;;;;;;;;6.00;99.90;;;;;;5074240;28;20374;-82
2021/10/16 01:38:30;;;;;;;;;;;6.10;99.90;;;;;;5056435;28;19920;-82
2021/10/16 01:40:56;;;;;;;;;;;6.10;99.90;;;;;;5056260;28;20280;-83
2021/10/16 01:43:22;;;;;;;;;;;6.20;99.90;;;;;;5055972;28;19908;-82
2021/10/16 01:45:51;;;;;;;;;;;6.10;99.90;;;;;;5056162;28;19923;-84
2021/10/16 01:48:19;;;;;;;;;;;6.10;99.90;;;;;;5074121;28;19909;-82
2021/10/16 01:50:45;;;;;;;;;;;6.10;99.90;;;;;;5072538;28;19908;-82
2021/10/16 01:53:10;;;;;;;;;;;6.20;99.90;;;;;;5072696;28;20273;-83
2021/10/16 01:55:36;;;;;;;;;;;6.20;99.90;;;;;;5055918;28;19916;-82
2021/10/16 01:58:05;;;;;;;;;;;6.10;99.90;;;;;;5073419;28;19945;-82
2021/10/16 02:00:31;;;;;;;;;;;6.10;99.90;;;;;;5073851;28;19918;-82
2021/10/16 02:02:56;;;;;;;;;;;6.20;99.90;;;;;;5073588;28;19912;-82
2021/10/16 02:05:22;;;;;;;;;;;6.20;99.90;;;;;;5073721;28;19909;-83
2021/10/16 02:07:47;;;;;;;;;;;6.20;99.90;;;;;;5074058;28;20384;-82
2021/10/16 02:10:13;;;;;;;;;;;6.20;99.90;;;;;;5072162;28;19909;-83
2021/10/16 02:12:38;;;;;;;;;;;6.20;99.90;;;;;;5073494;28;20353;-83
2021/10/16 02:15:04;;;;;;;;;;;6.30;99.90;;;;;;5073646;28;20280;-83
2021/10/16 02:17:29;;;;;;;;;;;6.30;99.90;;;;;;5072302;28;19919;-82
2021/10/16 02:19:55;;;;;;;;;;;6.30;99.90;;;;;;5055566;28;20007;-83
2021/10/16 02:22:20;;;;;;;;;;;6.40;99.90;;;;;;5073809;28;19938;-83
2021/10/16 02:24:46;;;;;;;;;;;6.40;99.90;;;;;;5072441;28;19916;-83
2021/10/16 02:27:11;;;;;;;;;;;6.40;99.90;;;;;;5072666;28;20348;-83
2021/10/16 02:29:37;;;;;;;;;;;6.40;99.90;;;;;;5074020;28;19947;-83
2021/10/16 02:32:03;;;;;;;;;;;6.50;99.90;;;;;;5073510;28;20366;-83
2021/10/16 02:34:28;;;;;;;;;;;6.50;99.90;;;;;;5073736;28;19916;-84
2021/10/16 02:36:54;;;;;;;;;;;6.50;99.90;;;;;;5072090;28;19909;-83
2021/10/16 02:39:19;;;;;;;;;;;6.60;99.90;;;;;;5071523;28;20379;-83
2021/10/16 02:41:45;;;;;;;;;;;6.50;99.90;;;;;;5072100;28;19915;-84
2021/10/16 02:44:10;;;;;;;;;;;6.50;99.90;;;;;;5072303;28;20388;-83
2021/10/16 02:46:36;;;;;;;;;;;6.60;99.90;;;;;;5071816;28;19915;-83
2021/10/16 02:49:01;;;;;;;;;;;6.60;99.90;;;;;;5071757;28;19913;-83
2021/10/16 02:51:27;;;;;;;;;;;6.60;99.90;;;;;;5073317;28;19916;-82
2021/10/16 02:53:52;;;;;;;;;;;6.70;99.90;;;;;;5071778;28;19948;-82
2021/10/16 02:56:18;;;;;;;;;;;6.70;99.90;;;;;;5071844;28;19962;-82
2021/10/16 02:58:43;;;;;;;;;;;6.60;99.90;;;;;;5071394;28;19948;-84
2021/10/16 03:01:09;;;;;;;;;;;6.60;99.90;;;;;;5071910;28;19915;-82
2021/10/16 03:03:34;;;;;;;;;;;6.60;99.90;;;;;;5071494;28;20302;-83
2021/10/16 03:05:59;;;;;;;;;;;6.60;99.90;;;;;;5072896;28;19920;-83
2021/10/16 03:08:25;;;;;;;;;;;6.60;99.90;;;;;;5071934;28;20015;-82
2021/10/16 03:10:50;;;;;;;;;;;6.60;99.90;;;;;;5071722;28;20006;-82
2021/10/16 03:13:16;;;;;;;;;;;6.70;99.90;;;;;;5072703;28;19931;-83
2021/10/16 03:15:41;;;;;;;;;;;6.70;99.90;;;;;;5072070;28;19908;-83
2021/10/16 03:18:07;;;;;;;;;;;6.70;99.90;;;;;;5072399;28;19913;-82
2021/10/16 03:20:32;;;;;;;;;;;6.70;99.90;;;;;;5073007;28;19915;-82
2021/10/16 03:22:58;;;;;;;;;;;6.80;99.90;;;;;;5071461;28;19908;-83
2021/10/16 03:25:23;;;;;;;;;;;6.80;99.90;;;;;;5071323;28;19915;-82
2021/10/16 03:27:49;;;;;;;;;;;6.90;99.90;;;;;;5071527;28;19916;-83
2021/10/16 03:30:14;;;;;;;;;;;6.90;99.90;;;;;;5073003;28;19913;-83
2021/10/16 03:32:40;;;;;;;;;;;6.90;99.90;;;;;;5071428;28;19909;-84
2021/10/16 03:35:05;;;;;;;;;;;6.90;99.90;;;;;;5071705;28;19913;-83
2021/10/16 03:37:31;;;;;;;;;;;6.90;99.90;;;;;;5071896;28;20376;-82
2021/10/16 03:39:56;;;;;;;;;;;6.90;99.90;;;;;;5071211;28;19916;-83
2021/10/16 03:42:22;;;;;;;;;;;7.00;99.90;;;;;;5072708;28;19915;-82
2021/10/16 03:44:47;;;;;;;;;;;7.00;99.90;;;;;;5071319;28;19908;-83
2021/10/16 03:47:13;;;;;;;;;;;7.00;99.90;;;;;;5071461;28;19908;-82
2021/10/16 03:49:38;;;;;;;;;;;7.10;99.90;;;;;;5055791;28;19916;-83
2021/10/16 03:52:04;;;;;;;;;;;7.00;99.90;;;;;;5076318;28;19950;-82
2021/10/16 03:54:29;;;;;;;;;;;7.10;99.90;;;;;;5076241;28;19954;-82
2021/10/16 03:56:55;;;;;;;;;;;7.10;99.90;;;;;;5075896;28;19961;-82
2021/10/16 03:59:22;;;;;;;;;;;7.10;99.90;;;;;;5075928;28;19916;-82
2021/10/16 04:01:48;;;;;;;;;;;7.10;99.90;;;;;;5076368;28;19908;-82
2021/10/16 04:04:13;;;;;;;;;;;7.20;99.90;;;;;;5076003;28;19915;-83
2021/10/16 04:06:39;;;;;;;;;;;7.10;99.90;;;;;;5074298;28;20254;-83
2021/10/16 04:09:04;;;;;;;;;;;6.90;99.90;;;;;;5074629;28;19912;-83
2021/10/16 04:11:30;;;;;;;;;;;6.90;99.90;;;;;;5075642;28;19912;-83
2021/10/16 04:13:55;;;;;;;;;;;7.00;99.90;;;;;;5075626;28;20046;-83
2021/10/16 04:16:21;;;;;;;;;;;7.00;99.90;;;;;;5074445;28;20369;-82
2021/10/16 04:18:46;;;;;;;;;;;7.10;99.90;;;;;;5074514;28;19913;-82
2021/10/16 04:21:12;;;;;;;;;;;7.10;99.90;;;;;;5074148;28;19999;-83
2021/10/16 04:23:37;;;;;;;;;;;7.10;99.90;;;;;;5075646;28;20003;-83
2021/10/16 04:26:03;;;;;;;;;;;7.10;99.90;;;;;;5075757;28;20391;-83
2021/10/16 04:28:28;;;;;;;;;;;7.10;99.90;;;;;;5074214;28;19955;-83
2021/10/16 04:30:54;;;;;;;;;;;7.10;99.90;;;;;;5075844;28;19909;-83
2021/10/16 04:33:19;;;;;;;;;;;7.10;99.90;;;;;;5073946;28;19908;-83
2021/10/16 04:35:45;;;;;;;;;;;7.10;99.90;;;;;;5075720;28;19908;-83
2021/10/16 04:38:10;;;;;;;;;;;7.10;99.90;;;;;;5074655;28;19946;-83
2021/10/16 04:40:36;;;;;;;;;;;7.00;99.90;;;;;;5075551;28;19909;-83
2021/10/16 04:43:05;;;;;;;;;;;7.00;99.90;;;;;;5057425;28;19908;-84
2021/10/16 04:45:31;;;;;;;;;;;7.00;99.90;;;;;;5075045;28;19916;-82
2021/10/16 04:47:56;;;;;;;;;;;7.20;99.90;;;;;;5075129;28;20387;-83
2021/10/16 04:50:23;;;;;;;;;;;7.20;99.90;;;;;;5075017;28;19909;-84
2021/10/16 04:52:48;;;;;;;;;;;7.30;99.90;;;;;;5056933;28;19915;-83
2021/10/16 04:55:14;;;;;;;;;;;7.30;99.90;;;;;;5074038;28;19916;-83
2021/10/16 04:57:39;;;;;;;;;;;7.20;99.90;;;;;;5075539;28;19982;-83
2021/10/16 05:00:06;;;;;;;;;;;7.20;99.90;;;;;;5073970;28;19909;-83
2021/10/16 05:02:32;;;;;;;;;;;7.10;99.90;;;;;;5056821;28;19915;-83
2021/10/16 05:04:58;;;;;;;;;;;7.20;99.90;;;;;;5057487;28;19909;-83
2021/10/16 05:07:23;;;;;;;;;;;7.10;99.90;;;;;;5075403;28;19908;-83
2021/10/16 05:09:49;;;;;;;;;;;7.00;99.90;;;;;;5075610;28;19915;-83
2021/10/16 05:12:18;;;;;;;;;;;7.00;99.90;;;;;;5075567;28;19908;-82
2021/10/16 05:14:44;;;;;;;;;;;6.90;99.90;;;;;;5074088;28;19908;-83
2021/10/16 05:17:10;;;;;;;;;;;7.00;99.90;;;;;;5075307;28;19916;-83
2021/10/16 05:19:35;;;;;;;;;;;7.10;99.90;;;;;;5075376;28;20268;-83
2021/10/16 05:22:01;;;;;;;;;;;7.20;99.90;;;;;;5075394;28;19912;-83
2021/10/16 05:24:26;;;;;;;;;;;7.20;99.90;;;;;;5075001;28;19908;-83
2021/10/16 05:26:52;;;;;;;;;;;7.30;99.90;;;;;;5075077;28;19915;-83
2021/10/16 05:29:17;;;;;;;;;;;7.20;99.90;;;;;;5074266;28;20324;-83
2021/10/16 05:31:43;;;;;;;;;;;7.20;99.90;;;;;;5073522;28;19955;-84
2021/10/16 05:34:08;;;;;;;;;;;7.30;99.90;;;;;;5072938;28;20365;-83
2021/10/16 05:36:34;;;;;;;;;;;7.20;99.90;;;;;;5074569;28;19908;-83
2021/10/16 05:38:59;;;;;;;;;;;7.10;99.90;;;;;;5073575;28;19935;-83
2021/10/16 05:41:25;;;;;;;;;;;7.00;99.90;;;;;;5073218;28;19908;-83
2021/10/16 05:43:50;;;;;;;;;;;7.00;99.90;;;;;;5072996;28;20392;-82
2021/10/16 05:46:16;;;;;;;;;;;7.10;99.90;;;;;;5072876;28;19908;-83
2021/10/16 05:48:41;;;;;;;;;;;7.10;99.90;;;;;;5074966;28;19919;-83
2021/10/16 05:51:07;;;;;;;;;;;7.10;99.90;;;;;;5075242;28;19908;-83
2021/10/16 05:53:32;;;;;;;;;;;7.30;99.90;;;;;;5074272;28;19909;-83
2021/10/16 05:55:58;;;;;;;;;;;7.40;99.90;;;;;;5073534;28;20350;-82
2021/10/16 05:58:25;;;;;;;;;;;7.40;99.90;;;;;;5075184;28;19917;-83
2021/10/16 06:00:51;;;;;;;;;;;7.40;99.90;;;;;;5073553;28;19908;-82
2021/10/16 06:03:16;;;;;;;;;;;7.40;99.90;;;;;;5056644;28;20288;-82
2021/10/16 06:05:44;;;;;;;;;;;7.40;99.90;;;;;;5073878;28;21442;-83
2021/10/16 06:08:10;;;;;;;;;;;7.40;99.90;;;;;;5056612;28;19959;-82
2021/10/16 06:10:35;;;;;;;;;;;7.30;99.90;;;;;;5073681;28;20276;-82
2021/10/16 06:13:01;;;;;;;;;;;7.30;99.90;;;;;;5073285;28;19912;-82
2021/10/16 06:15:26;;;;;;;;;;;7.20;99.90;;;;;;5073347;28;20284;-83
2021/10/16 06:17:52;;;;;;;;;;;7.20;99.90;;;;;;5073883;28;19995;-82
2021/10/16 06:20:17;;;;;;;;;;;7.20;99.90;;;;;;5073467;28;20515;-82
2021/10/16 06:22:43;;;;;;;;;;;7.30;99.90;;;;;;5074446;28;19909;-82
2021/10/16 06:25:09;;;;;;;;;;;7.40;99.90;;;;;;5075382;28;19913;-83
2021/10/16 06:27:34;;;;;;;;;;;7.50;99.90;;;;;;5056597;28;20300;-83
2021/10/16 06:30:00;;;;;;;;;;;7.60;99.90;;;;;;5074866;28;20438;-82
2021/10/16 06:32:25;;;;;;;;;;;7.60;99.90;;;;;;5074013;28;19912;-82
2021/10/16 06:34:51;;;;;;;;;;;7.50;99.90;;;;;;5073969;28;19972;-82
2021/10/16 06:37:16;;;;;;;;;;;7.50;99.90;;;;;;5073299;28;19908;-82
2021/10/16 06:39:42;;;;;;;;;;;7.50;99.90;;;;;;5074842;28;19914;-82
2021/10/16 06:42:08;;;;;;;;;;;7.40;99.90;;;;;;5073344;28;20246;-83
2021/10/16 06:44:33;;;;;;;;;;;7.50;99.90;;;;;;5056052;28;19908;-83
2021/10/16 06:46:59;;;;;;;;;;;7.40;99.90;;;;;;5073736;28;19909;-85
2021/10/16 06:49:24;;;;;;;;;;;7.50;99.90;;;;;;5054759;28;20328;-86
2021/10/16 06:51:50;;;;;;;;;;;7.40;99.90;;;;;;5072166;28;19908;-87
2021/10/16 06:54:15;;;;;;;;;;;7.50;99.90;;;;;;5071911;28;19915;-86
2021/10/16 06:56:41;;;;;;;;;;;7.50;99.90;;;;;;5072937;28;19970;-85
2021/10/16 06:59:06;;;;;;;;;;;7.60;99.90;;;;;;5071697;28;19916;-85
2021/10/16 07:01:32;;;;;;;;;;;7.70;99.90;;;;;;5071842;28;20441;-86
2021/10/16 07:03:57;;;;;;;;;;;7.60;99.90;;;;;;5072701;28;20334;-86
2021/10/16 07:06:23;;;;;;;;;;;7.70;99.90;;;;;;5071686;28;19908;-87
2021/10/16 07:08:48;;;;;;;;;;;7.70;99.90;;;;;;5071744;28;19909;-87
2021/10/16 07:11:14;;;;;;;;;;;7.80;99.90;;;;;;5071656;28;19908;-87
2021/10/16 07:13:39;;;;;;;;;;;7.90;99.90;;;;;;5072734;28;19909;-86
2021/10/16 07:16:05;;;;;;;;;;;7.90;99.90;;;;;;5071796;28;20285;-86
2021/10/16 07:18:30;;;;;;;;;;;7.90;99.90;;;;;;5067737;28;20295;-86
2021/10/16 07:20:56;;;;;;;;;;;8.00;99.90;;;;;;5071473;28;19908;-86
2021/10/16 07:23:26;;;;;;;;;;;8.10;99.90;;;;;;5054319;28;19917;-86
2021/10/16 07:25:56;;;;;;;;;;;8.10;99.90;;;;;;5058539;28;19912;-87
2021/10/16 07:28:22;;;;;;;;;;;7.80;99.90;;;;;;5076535;28;19997;-87
2021/10/16 07:30:48;;;;;;;;;;;7.80;99.90;;;;;;5058594;28;19912;-87
2021/10/16 07:33:13;;;;;;;;;;;7.80;99.90;;;;;;5058642;28;20279;-87
2021/10/16 07:35:42;;;;;;;;;;;8.00;99.90;;;;;;5075461;28;19916;-87
2021/10/16 07:38:08;;;;;;;;;;;8.10;99.90;;;;;;5058781;28;19919;-87
2021/10/16 07:40:34;;;;;;;;;;;8.20;99.90;;;;;;5053721;28;19908;-87
2021/10/16 07:42:59;;;;;;;;;;;8.30;99.90;;;;;;5074850;28;19916;-85
2021/10/16 07:45:25;;;;;;;;;;;8.30;99.90;;;;;;5074891;28;19958;-86
2021/10/16 07:47:50;;;;;;;;;;;8.30;99.90;;;;;;5074923;28;19919;-87
2021/10/16 07:50:16;;;;;;;;;;;8.50;99.90;;;;;;5058063;28;20388;-86
2021/10/16 07:52:42;;;;;;;;;;;8.50;99.90;;;;;;5058059;28;19912;-86
2021/10/16 07:55:07;;;;;;;;;;;8.40;99.90;;;;;;5074766;28;20285;-86
2021/10/16 07:57:33;;;;;;;;;;;8.30;99.90;;;;;;5075746;28;19964;-86
2021/10/16 07:59:58;;;;;;;;;;;8.40;99.90;;;;;;5074679;28;19908;-86
2021/10/16 08:02:24;;;;;;;;;;;8.60;99.90;;;;;;5074714;28;19909;-86
2021/10/16 08:04:52;;;;;;;;;;;8.60;99.90;;;;;;5074537;28;19908;-85
2021/10/16 08:07:19;;;;;;;;;;;8.70;99.90;;;;;;5058237;28;19968;-84
2021/10/16 08:09:44;;;;;;;;;;;8.60;99.90;;;;;;5074871;28;19909;-84
2021/10/16 08:12:10;;;;;;;;;;;8.60;99.90;;;;;;5076477;28;19909;-82
2021/10/16 08:14:36;;;;;;;;;;;8.60;99.90;;;;;;5076705;28;20027;-85
2021/10/16 08:17:01;;;;;;;;;;;8.70;99.90;;;;;;5057975;28;19913;-86
2021/10/16 08:19:27;;;;;;;;;;;8.60;99.90;;;;;;5075174;28;19912;-83
2021/10/16 08:21:53;;;;;;;;;;;8.70;99.90;;;;;;5074809;28;19931;-83
2021/10/16 08:24:18;;;;;;;;;;;8.80;99.90;;;;;;5074554;28;19954;-83
2021/10/16 08:26:44;;;;;;;;;;;8.70;99.90;;;;;;5076471;28;19908;-84
2021/10/16 08:29:10;;;;;;;;;;;8.70;99.90;;;;;;5075524;28;19963;-84
2021/10/16 08:31:35;;;;;;;;;;;8.80;99.90;;;;;;5073773;28;19955;-83
2021/10/16 08:34:01;;;;;;;;;;;8.90;99.90;;;;;;5076559;28;20262;-82
2021/10/16 08:36:26;;;;;;;;;;;9.00;99.90;;;;;;5072815;28;19909;-84
2021/10/16 08:38:52;;;;;;;;;;;9.10;99.90;;;;;;5074588;28;20376;-84
2021/10/16 08:41:18;;;;;;;;;;;9.10;99.90;;;;;;5075740;28;20288;-84
2021/10/16 08:43:43;;;;;;;;;;;9.20;99.90;;;;;;5075814;28;19908;-84
2021/10/16 08:46:09;;;;;;;;;;;9.30;99.90;;;;;;5074397;28;19909;-84
2021/10/16 08:48:38;;;;;;;;;;;9.20;99.90;;;;;;5058406;28;19908;-84
2021/10/16 08:51:03;;;;;;;;;;;9.10;99.90;;;;;;5074821;28;19909;-83
2021/10/16 08:53:29;;;;;;;;;;;9.00;99.90;;;;;;5074330;28;19914;-84
2021/10/16 08:55:55;;;;;;;;;;;9.10;99.90;;;;;;5075136;28;19915;-84
2021/10/16 08:58:20;;;;;;;;;;;9.20;99.90;;;;;;5058721;28;19924;-84
2021/10/16 09:00:53;;;;;;;;;;;9.30;99.90;;;;;;5077021;28;19908;-86
2021/10/16 09:03:20;;;;;;;;;;;9.30;99.90;;;;;;5076211;28;19968;-84
2021/10/16 09:06:06;;;;;;;;;;;9.40;99.90;;;;;;5058542;28;19944;-84
2021/10/16 09:08:33;;;;;;;;;;;9.50;99.90;;;;;;5077051;28;20298;-84
2021/10/16 09:11:10;;;;;;;;;;;9.50;99.90;;;;;;5058947;28;19973;-84
2021/10/16 09:13:53;;;;;;;;;;;9.60;99.90;;;;;;5075030;28;19952;-83
2021/10/16 09:16:20;;;;;;;;;;;9.50;99.90;;;;;;5075985;28;19908;-84
2021/10/16 09:18:50;;;;;;;;;;;9.80;99.90;;;;;;5056765;28;19947;-84
2021/10/16 09:21:15;;;;;;;;;;;10.00;99.90;;;;;;5066077;28;19909;-84
2021/10/16 09:23:41;;;;;;;;;;;9.90;99.90;;;;;;5056812;28;19938;-84
2021/10/16 09:26:07;;;;;;;;;;;10.00;99.90;;;;;;5074095;28;19956;-84
2021/10/16 09:28:33;;;;;;;;;;;9.90;99.90;;;;;;5075658;28;19909;-84
2021/10/16 09:31:07;;;;;;;;;;;9.80;99.90;;;;;;5073962;28;19909;-84
2021/10/16 09:33:46;;;;;;;;;;;9.90;99.90;;;;;;5056550;28;19997;-85
2021/10/16 09:36:22;;;;;;;;;;;9.80;99.90;;;;;;5056671;28;20007;-84
2021/10/16 09:38:47;;;;;;;;;;;9.70;99.90;;;;;;5056915;28;19919;-84
2021/10/16 09:41:33;;;;;;;;;;;9.70;99.90;;;;;;5073791;28;19908;-85
2021/10/16 09:43:59;;;;;;;;;;;9.80;99.90;;;;;;5074332;28;20401;-86
2021/10/16 09:46:24;;;;;;;;;;;9.80;99.90;;;;;;5074593;28;19908;-85
2021/10/16 09:48:50;;;;;;;;;;;10.10;99.90;;;;;;5073378;28;20000;-84
2021/10/16 09:51:20;;;;;;;;;;;10.60;99.90;;;;;;5073245;28;19954;-85
2021/10/16 09:53:46;;;;;;;;;;;10.90;99.90;;;;;;5056515;28;19948;-85
2021/10/16 09:56:12;;;;;;;;;;;10.80;99.90;;;;;;5056376;28;19912;-84
2021/10/16 09:58:38;;;;;;;;;;;10.90;99.90;;;;;;5056019;28;19916;-84
2021/10/16 10:01:04;;;;;;;;;;;10.90;99.90;;;;;;5078080;28;19966;-85
2021/10/16 10:03:31;;;;;;;;;;;10.80;99.90;;;;;;5071884;28;19912;-84
2021/10/16 10:05:56;;;;;;;;;;;10.90;99.90;;;;;;5055409;28;19909;-85
2021/10/16 10:08:22;;;;;;;;;;;10.70;99.90;;;;;;5071999;28;19915;-85
2021/10/16 10:10:48;;;;;;;;;;;10.80;99.90;;;;;;5056049;28;19909;-85
2021/10/16 10:13:14;;;;;;;;;;;11.10;99.90;;;;;;5055798;28;19915;-85
2021/10/16 10:15:40;;;;;;;;;;;11.00;99.90;;;;;;5055222;28;19915;-85
2021/10/16 10:20:52;;;;;;;;;;;11.20;99.90;;;;;;5073097;28;19919;-84
2021/10/16 10:23:18;;;;;;;;;;;11.20;99.90;;;;;;5072465;28;19908;-85
2021/10/16 10:25:43;;;;;;;;;;;11.50;99.90;;;;;;5055154;28;19916;-84
2021/10/16 10:28:09;;;;;;;;;;;11.60;99.90;;;;;;5072026;28;20280;-85
2021/10/16 10:30:35;;;;;;;;;;;12.10;99.90;;;;;;5072042;28;19913;-84
2021/10/16 10:33:15;;;;;;;;;;;12.20;99.90;;;;;;5055275;28;19919;-84
2021/10/16 10:36:11;;;;;;;;;;;12.30;99.90;;;;;;5073528;28;19974;-85
2021/10/16 10:38:39;;;;;;;;;;;12.40;99.90;;;;;;5055584;28;19912;-85
2021/10/16 10:41:23;;;;;;;;;;;12.40;99.90;;;;;;5072885;28;19954;-85
2021/10/16 10:43:49;;;;;;;;;;;11.90;99.90;;;;;;5073775;28;19908;-85
2021/10/16 10:46:14;;;;;;;;;;;11.90;99.90;;;;;;5056306;28;19908;-85
2021/10/16 10:48:41;;;;;;;;;;;11.70;99.90;;;;;;5070890;28;19915;-85
2021/10/16 10:51:06;;;;;;;;;;;11.60;99.90;;;;;;5060100;28;19908;-85
2021/10/16 10:53:33;;;;;;;;;;;11.60;99.90;;;;;;5077119;28;19908;-85
2021/10/16 10:56:07;;;;;;;;;;;11.70;99.90;;;;;;5077302;28;20387;-81
2021/10/16 10:58:48;;;;;;;;;;;11.80;99.90;;;;;;5075446;28;19916;-83
2021/10/16 11:01:32;;;;;;;;;;;11.60;99.90;;;;;;5046986;28;20396;-85
2021/10/16 11:04:03;;;;;;;;;;;11.90;99.90;;;;;;5046563;28;19920;-83
2021/10/16 11:06:29;;;;;;;;;;;12.20;99.90;;;;;;5044469;28;19909;-84
2021/10/16 11:09:12;;;;;;;;;;;11.90;99.90;;;;;;5062276;28;20408;-84
2021/10/16 11:11:47;;;;;;;;;;;12.40;99.90;;;;;;5062917;28;19995;-85
2021/10/16 11:14:13;;;;;;;;;;;12.70;99.90;;;;;;5045652;28;19909;-84
2021/10/16 11:16:54;;;;;;;;;;;12.70;99.90;;;;;;5060329;28;19915;-84
2021/10/16 11:19:20;;;;;;;;;;;12.80;99.90;;;;;;5041159;28;20400;-85
2021/10/16 11:21:56;;;;;;;;;;;12.60;99.90;;;;;;5058635;28;19912;-85
2021/10/16 11:24:22;;;;;;;;;;;12.40;99.90;;;;;;5057642;28;19922;-85
2021/10/16 11:26:55;;;;;;;;;;;12.30;99.90;;;;;;5058886;28;20293;-84
2021/10/16 11:29:27;;;;;;;;;;;12.40;99.90;;;;;;5045679;28;20330;-85
2021/10/16 11:32:09;;;;;;;;;;;12.60;99.90;;;;;;5061300;28;19909;-84
2021/10/16 11:34:34;;;;;;;;;;;12.70;99.90;;;;;;5060074;28;19908;-84
2021/10/16 11:37:00;;;;;;;;;;;12.60;99.90;;;;;;5077196;28;19918;-84
2021/10/16 11:39:26;;;;;;;;;;;12.90;99.90;;;;;;5076469;28;19913;-84
2021/10/16 11:41:56;;;;;;;;;;;12.70;99.90;;;;;;5076982;28;20394;-84
2021/10/16 11:44:21;;;;;;;;;;;12.80;99.90;;;;;;5061377;28;20054;-84
2021/10/16 11:47:01;;;;;;;;;;;13.30;99.90;;;;;;5077971;28;19908;-84
2021/10/16 11:49:28;;;;;;;;;;;13.60;99.90;;;;;;5062490;28;19909;-84
2021/10/16 11:51:53;;;;;;;;;;;13.30;99.90;;;;;;5058424;28;19908;-84
2021/10/16 11:54:19;;;;;;;;;;;13.40;99.90;;;;;;5074494;28;19908;-84
2021/10/16 11:56:52;;;;;;;;;;;13.50;99.90;;;;;;5074557;28;19916;-85
2021/10/16 11:59:21;;;;;;;;;;;13.10;99.90;;;;;;5057317;28;20007;-84
2021/10/16 12:01:46;;;;;;;;;;;12.90;99.90;;;;;;5073821;28;20387;-85
2021/10/16 12:04:12;;;;;;;;;;;13.10;99.90;;;;;;5076466;28;19909;-85
2021/10/16 12:06:38;;;;;;;;;;;13.40;99.90;;;;;;5073883;28;19908;-84
2021/10/16 12:09:04;;;;;;;;;;;13.10;99.90;;;;;;5075357;28;19909;-85
2021/10/16 12:11:30;;;;;;;;;;;12.50;99.90;;;;;;5073904;28;19908;-84
2021/10/16 12:13:57;;;;;;;;;;;12.10;99.90;;;;;;5075020;28;19912;-84
2021/10/16 12:16:23;;;;;;;;;;;12.20;99.90;;;;;;5074968;28;20320;-85
2021/10/16 12:18:53;;;;;;;;;;;12.10;99.90;;;;;;5057263;28;19995;-84
2021/10/16 12:21:25;;;;;;;;;;;12.00;99.90;;;;;;5074404;28;19908;-84
2021/10/16 12:23:51;;;;;;;;;;;12.10;99.90;;;;;;5074711;28;19908;-84
2021/10/16 12:26:17;;;;;;;;;;;12.00;99.90;;;;;;5074794;28;19908;-84
2021/10/16 12:28:43;;;;;;;;;;;11.90;99.90;;;;;;5056849;28;19915;-84
2021/10/16 12:31:09;;;;;;;;;;;11.70;99.90;;;;;;5056740;28;19908;-84
2021/10/16 12:33:53;;;;;;;;;;;11.70;99.90;;;;;;5073425;28;19915;-84
2021/10/16 12:36:23;;;;;;;;;;;11.70;99.90;;;;;;5056671;28;19908;-84
2021/10/16 12:38:48;;;;;;;;;;;11.80;99.90;;;;;;5074678;28;19919;-84
2021/10/16 12:41:21;;;;;;;;;;;11.70;99.90;;;;;;5073628;28;19909;-85
2021/10/16 12:43:47;;;;;;;;;;;12.00;99.90;;;;;;5056469;28;20432;-84
2021/10/16 12:46:28;;;;;;;;;;;12.30;99.90;;;;;;5073097;28;20005;-85
2021/10/16 12:48:54;;;;;;;;;;;12.20;99.90;;;;;;5056534;28;19916;-85
2021/10/16 12:51:37;;;;;;;;;;;12.20;99.90;;;;;;5074542;28;19915;-86
2021/10/16 12:54:03;;;;;;;;;;;12.20;99.90;;;;;;5056370;28;19912;-83
2021/10/16 12:56:28;;;;;;;;;;;12.10;99.90;;;;;;5073081;28;20364;-85
2021/10/16 12:58:54;;;;;;;;;;;12.00;99.90;;;;;;5074053;28;19916;-84
2021/10/16 13:01:19;;;;;;;;;;;12.00;99.90;;;;;;5072898;28;20474;-84
2021/10/16 13:03:46;;;;;;;;;;;12.00;99.90;;;;;;5073907;28;19908;-84
2021/10/16 13:06:12;;;;;;;;;;;12.10;99.90;;;;;;5074041;28;19917;-84
2021/10/16 13:08:37;;;;;;;;;;;12.20;99.90;;;;;;5072871;28;19958;-84
2021/10/16 13:11:02;;;;;;;;;;;12.20;99.90;;;;;;5072869;28;20003;-84
2021/10/16 13:13:28;;;;;;;;;;;12.30;99.90;;;;;;5072516;28;20288;-85
2021/10/16 13:15:53;;;;;;;;;;;12.40;99.90;;;;;;5073905;28;20339;-85
2021/10/16 13:18:19;;;;;;;;;;;12.40;99.90;;;;;;5074126;28;19912;-85
2021/10/16 13:20:44;;;;;;;;;;;12.70;99.90;;;;;;5068544;28;19909;-84
2021/10/16 13:23:10;;;;;;;;;;;12.80;99.90;;;;;;5046299;28;19908;-84
2021/10/16 13:25:37;;;;;;;;;;;13.00;99.90;;;;;;5072501;28;19909;-87
2021/10/16 13:28:03;;;;;;;;;;;13.10;99.90;;;;;;5072472;28;19961;-86
2021/10/16 13:30:29;;;;;;;;;;;13.00;99.90;;;;;;5055851;28;19916;-85
2021/10/16 13:32:54;;;;;;;;;;;12.70;99.90;;;;;;5073559;28;19908;-84
2021/10/16 13:35:20;;;;;;;;;;;12.60;99.90;;;;;;5073669;28;20046;-85
2021/10/16 13:37:45;;;;;;;;;;;12.60;99.90;;;;;;5072269;28;20261;-84
2021/10/16 13:40:12;;;;;;;;;;;12.50;99.90;;;;;;5073400;28;19912;-85
2021/10/16 13:42:38;;;;;;;;;;;12.30;99.90;;;;;;5055566;28;19908;-84
2021/10/16 13:45:05;;;;;;;;;;;12.20;99.90;;;;;;5055306;28;20335;-84
2021/10/16 13:47:30;;;;;;;;;;;12.20;99.90;;;;;;5073659;28;19917;-84
2021/10/16 13:49:56;;;;;;;;;;;12.30;99.90;;;;;;5073059;28;19913;-84
2021/10/16 13:52:21;;;;;;;;;;;12.50;99.90;;;;;;5071889;28;19919;-85
2021/10/16 13:54:48;;;;;;;;;;;12.50;99.90;;;;;;5072162;28;19916;-84
2021/10/16 13:57:13;;;;;;;;;;;12.50;99.90;;;;;;5071994;28;19917;-85
2021/10/16 13:59:39;;;;;;;;;;;12.50;99.90;;;;;;5071761;28;19920;-84
2021/10/16 14:02:05;;;;;;;;;;;12.60;99.90;;;;;;5055173;28;20261;-84
2021/10/16 14:04:30;;;;;;;;;;;12.40;99.90;;;;;;5072851;28;19985;-84
2021/10/16 14:06:56;;;;;;;;;;;12.50;99.90;;;;;;5072303;28;19909;-83
2021/10/16 14:09:21;;;;;;;;;;;12.50;99.90;;;;;;5073096;28;19961;-85
2021/10/16 14:11:47;;;;;;;;;;;12.40;99.90;;;;;;5071761;28;19909;-85
2021/10/16 14:14:12;;;;;;;;;;;12.40;99.90;;;;;;5072919;28;19916;-84
2021/10/16 14:16:38;;;;;;;;;;;12.40;99.90;;;;;;5072916;28;19913;-84
2021/10/16 14:19:04;;;;;;;;;;;12.40;99.90;;;;;;5071424;28;20273;-84
2021/10/16 14:21:33;;;;;;;;;;;12.40;99.90;;;;;;5068019;28;19909;-86
2021/10/16 14:23:59;;;;;;;;;;;12.40;99.90;;;;;;5071393;28;19912;-84
2021/10/16 14:26:24;;;;;;;;;;;12.40;99.90;;;;;;5054658;28;19908;-84